Time;durP1;ratioP1;P1;durP2;ratioP2;P2;SDS_P1;SDS_P2;PMS_P1;PMS_P2;Temp;Humidity;BMP_temperature;BMP_pressure;BME280_temperature;BME280_humidity;BME280_pressure;Samples;Min_cycle;Max_cycle;Signal;HPM_P1;HPM_P2
2021/08/14 00:02:09;;;;;;;6.10;4.10;;;;;;;24.39;52.36;102122.38;5066780;28;20067;-73
2021/08/14 00:04:34;;;;;;;7.65;4.68;;;;;;;24.34;52.55;102119.44;5069055;28;20170;-74
2021/08/14 00:07:00;;;;;;;8.52;4.80;;;;;;;24.43;52.50;102120.22;5063399;28;20051;-73
2021/08/14 00:09:25;;;;;;;6.30;4.25;;;;;;;24.40;52.52;102119.53;5061774;28;20041;-74
2021/08/14 00:11:51;;;;;;;5.43;4.20;;;;;;;24.31;52.67;102102.00;5067063;28;20029;-74
2021/08/14 00:14:17;;;;;;;6.75;4.13;;;;;;;24.32;52.64;102100.16;5066190;28;20040;-74
2021/08/14 00:16:42;;;;;;;6.78;4.25;;;;;;;24.37;52.68;102111.91;5066332;28;20107;-74
2021/08/14 00:19:08;;;;;;;6.47;3.88;;;;;;;24.36;52.47;102118.25;5065925;28;20221;-73
2021/08/14 00:21:34;;;;;;;6.78;4.10;;;;;;;24.32;52.56;102108.16;5065846;28;20036;-73
2021/08/14 00:23:59;;;;;;;7.93;4.50;;;;;;;24.26;52.57;102111.50;5064695;28;20032;-73
2021/08/14 00:26:25;;;;;;;8.55;4.30;;;;;;;24.29;52.58;102113.84;5066047;28;20044;-74
2021/08/14 00:28:50;;;;;;;6.00;4.47;;;;;;;24.31;52.63;102109.97;5046285;28;20033;-73
2021/08/14 00:31:18;;;;;;;8.65;4.50;;;;;;;24.28;52.66;102107.66;5065674;28;20052;-74
2021/08/14 00:33:43;;;;;;;6.05;4.22;;;;;;;24.28;52.59;102105.00;5069273;28;20496;-74
2021/08/14 00:36:09;;;;;;;6.50;4.03;;;;;;;24.26;52.63;102098.19;5076524;28;20061;-74
2021/08/14 00:38:35;;;;;;;6.10;3.95;;;;;;;24.21;52.53;102087.22;5067179;28;20028;-74
2021/08/14 00:41:00;;;;;;;5.63;3.90;;;;;;;24.28;52.76;102098.84;5065418;28;20067;-73
2021/08/14 00:43:26;;;;;;;5.95;4.47;;;;;;;23.79;52.83;102016.72;5062736;28;20037;-74
2021/08/14 00:45:52;;;;;;;5.30;4.30;;;;;;;24.17;52.68;102077.94;5066155;28;20047;-74
2021/08/14 00:48:18;;;;;;;7.85;4.55;;;;;;;24.21;52.79;102087.22;5061682;28;20452;-74
2021/08/14 00:50:44;;;;;;;6.03;4.47;;;;;;;24.06;52.68;102056.09;5066480;28;20097;-74
2021/08/14 00:53:09;;;;;;;6.55;4.50;;;;;;;24.15;52.84;102078.13;5064129;28;20478;-74
2021/08/14 00:55:35;;;;;;;7.00;4.47;;;;;;;24.23;52.78;102087.88;5061833;28;20047;-74
2021/08/14 00:58:00;;;;;;;6.95;4.80;;;;;;;24.21;52.74;102081.91;5065824;28;20691;-74
2021/08/14 01:00:26;;;;;;;6.55;4.50;;;;;;;24.13;52.92;102072.16;5064222;28;20051;-73
2021/08/14 01:02:54;;;;;;;7.07;5.00;;;;;;;24.21;52.75;102077.41;5064290;28;20098;-74
2021/08/14 01:05:19;;;;;;;5.75;4.38;;;;;;;24.09;52.75;102053.06;5064611;28;20478;-74
2021/08/14 01:07:45;;;;;;;6.15;4.40;;;;;;;24.22;52.82;102073.75;5061085;28;20111;-73
2021/08/14 01:10:11;;;;;;;7.47;4.80;;;;;;;24.20;52.95;102074.94;5065552;28;20819;-73
2021/08/14 01:12:36;;;;;;;6.65;5.00;;;;;;;23.93;53.08;102031.09;5062598;28;20036;-74
2021/08/14 01:15:04;;;;;;;6.10;4.20;;;;;;;24.19;52.81;102065.28;5064973;28;20043;-74
2021/08/14 01:17:30;;;;;;;6.75;4.65;;;;;;;24.17;52.84;102067.31;5064350;28;20048;-74
2021/08/14 01:19:55;;;;;;;6.47;4.65;;;;;;;24.17;52.86;102065.47;5064387;28;20041;-74
2021/08/14 01:22:21;;;;;;;6.22;4.40;;;;;;;24.19;52.77;102065.28;5062884;28;20567;-74
2021/08/14 01:24:46;;;;;;;6.68;4.57;;;;;;;23.97;52.75;102030.53;5066211;28;20044;-74
2021/08/14 01:27:12;;;;;;;6.75;4.90;;;;;;;24.13;52.96;102050.88;5066549;28;20134;-73
2021/08/14 01:29:39;;;;;;;8.30;5.03;;;;;;;24.15;52.83;102053.34;5064850;28;20498;-74
2021/08/14 01:32:08;;;;;;;8.82;4.85;;;;;;;24.14;52.72;102055.19;5065256;28;20035;-73
2021/08/14 01:34:36;;;;;;;6.68;4.50;;;;;;;24.10;52.75;102052.06;5063556;28;20059;-74
2021/08/14 01:37:02;;;;;;;8.38;4.95;;;;;;;24.13;52.81;102058.84;5067081;28;20060;-73
2021/08/14 01:39:27;;;;;;;6.90;4.70;;;;;;;24.09;52.82;102050.41;5066287;28;20068;-73
2021/08/14 01:42:04;;;;;;;5.38;3.90;;;;;;;24.05;52.97;102041.09;5068450;28;20040;-74
2021/08/14 01:44:31;;;;;;;8.45;4.88;;;;;;;24.03;52.97;102042.28;5067048;28;20040;-74
2021/08/14 01:46:56;;;;;;;7.38;4.65;;;;;;;24.05;52.84;102043.75;5067228;28;20040;-73
2021/08/14 01:49:23;;;;;;;6.45;4.65;;;;;;;23.97;52.85;102033.19;5066628;28;20085;-74
2021/08/14 01:51:49;;;;;;;7.35;4.80;;;;;;;23.96;53.13;102038.69;5068950;28;20044;-73
2021/08/14 01:54:16;;;;;;;6.65;5.05;;;;;;;24.05;53.05;102046.44;5067411;28;20139;-73
2021/08/14 01:56:42;;;;;;;5.38;4.28;;;;;;;23.96;53.06;102030.72;5068356;28;20029;-74
2021/08/14 01:59:07;;;;;;;7.20;4.75;;;;;;;23.98;53.15;102034.84;5066234;28;20371;-73
2021/08/14 02:01:33;;;;;;;8.38;4.78;;;;;;;24.01;53.01;102039.00;5067507;28;20083;-73
2021/08/14 02:03:58;;;;;;;8.00;4.97;;;;;;;24.05;53.02;102049.09;5085572;28;20137;-74
2021/08/14 02:06:26;;;;;;;6.30;4.57;;;;;;;24.03;52.88;102045.78;5068920;28;20452;-73
2021/08/14 02:08:53;;;;;;;6.78;4.50;;;;;;;23.92;52.97;102026.78;5066936;28;20479;-73
2021/08/14 02:11:24;;;;;;;7.32;4.93;;;;;;;23.94;53.17;102028.25;5066791;28;20143;-74
2021/08/14 02:13:50;;;;;;;7.40;4.72;;;;;;;24.02;52.99;102040.63;5065486;28;20086;-74
2021/08/14 02:16:16;;;;;;;7.70;4.85;;;;;;;24.01;53.12;102045.13;5067029;28;20120;-73
2021/08/14 02:18:42;;;;;;;7.40;5.10;;;;;;;23.93;53.23;102031.91;5067271;28;20440;-74
2021/08/14 02:21:09;;;;;;;7.82;5.03;;;;;;;24.00;53.03;102034.69;5068383;28;20166;-73
2021/08/14 02:23:35;;;;;;;9.52;4.78;;;;;;;23.96;52.99;102033.38;5068102;28;20037;-73
2021/08/14 02:26:01;;;;;;;6.07;4.75;;;;;;;23.99;53.17;102035.69;5065912;28;20036;-73
2021/08/14 02:28:28;;;;;;;8.75;4.63;;;;;;;23.95;52.91;102019.25;5068244;28;20087;-73
2021/08/14 02:30:55;;;;;;;7.93;4.80;;;;;;;23.99;53.11;102028.53;5068375;28;20037;-73
2021/08/14 02:33:20;;;;;;;6.53;4.60;;;;;;;23.82;53.25;102000.41;5066757;28;20056;-74
2021/08/14 02:35:47;;;;;;;7.63;5.20;;;;;;;23.97;53.13;102021.72;5068455;28;20123;-73
2021/08/14 02:38:12;;;;;;;7.07;4.50;;;;;;;23.96;53.06;102025.41;5067527;28;20044;-73
2021/08/14 02:40:38;;;;;;;7.95;4.97;;;;;;;23.62;53.11;101972.63;5068371;28;20040;-73
2021/08/14 02:43:04;;;;;;;8.48;5.00;;;;;;;23.98;52.93;102021.56;5066331;28;20060;-74
2021/08/14 02:45:31;;;;;;;6.47;4.85;;;;;;;23.96;53.04;102020.91;5066815;28;20032;-74
2021/08/14 02:47:57;;;;;;;7.35;4.95;;;;;;;23.95;53.36;102018.44;5067663;28;20093;-73
2021/08/14 02:50:23;;;;;;;7.15;4.65;;;;;;;23.95;53.21;102007.78;5068130;28;20470;-73
2021/08/14 02:52:50;;;;;;;7.70;5.05;;;;;;;23.92;53.29;102008.97;5065527;28;20036;-74
2021/08/14 02:55:16;;;;;;;8.38;5.05;;;;;;;23.89;53.10;102009.34;5066633;28;20475;-73
2021/08/14 02:57:41;;;;;;;10.65;5.10;;;;;;;23.93;53.06;102018.59;5065881;28;20032;-73
2021/08/14 03:00:07;;;;;;;7.03;5.00;;;;;;;23.70;53.21;101976.06;5069052;28;20482;-74
2021/08/14 03:02:33;;;;;;;6.88;4.60;;;;;;;23.92;52.98;102010.81;5066302;28;20511;-74
2021/08/14 03:04:59;;;;;;;9.07;4.30;;;;;;;23.86;52.99;101995.53;5082596;28;20040;-74
2021/08/14 03:07:24;;;;;;;6.25;4.10;;;;;;;23.81;53.20;101998.75;5066879;28;20050;-74
2021/08/14 03:09:50;;;;;;;7.97;5.45;;;;;;;23.89;53.13;102011.16;5063563;28;20041;-73
2021/08/14 03:12:15;;;;;;;8.45;5.20;;;;;;;23.83;53.11;101998.56;5066560;28;20452;-74
2021/08/14 03:14:40;;;;;;;8.68;5.03;;;;;;;23.90;53.01;102008.31;5048537;28;20025;-74
2021/08/14 03:17:06;;;;;;;6.70;4.65;;;;;;;23.89;53.24;102003.19;5067490;28;20490;-74
2021/08/14 03:19:33;;;;;;;6.88;4.88;;;;;;;23.85;53.07;102002.69;5066063;28;20102;-73
2021/08/14 03:21:59;;;;;;;6.25;4.30;;;;;;;23.84;53.29;101995.72;5049238;28;20156;-74
2021/08/14 03:24:24;;;;;;;9.20;5.00;;;;;;;23.88;53.46;102007.69;5066147;28;20064;-73
2021/08/14 03:26:50;;;;;;;10.15;5.20;;;;;;;23.44;53.25;101935.66;5065919;28;20047;-73
2021/08/14 03:29:16;;;;;;;5.78;4.55;;;;;;;23.88;53.10;102009.50;5065612;28;20446;-73
2021/08/14 03:31:41;;;;;;;6.72;4.97;;;;;;;23.86;53.29;102009.66;5064706;28;20509;-74
2021/08/14 03:34:07;;;;;;;8.70;4.82;;;;;;;23.86;53.19;102001.69;5068326;28;20052;-74
2021/08/14 03:36:33;;;;;;;6.85;4.82;;;;;;;23.86;53.17;101995.53;5064128;28;20035;-74
2021/08/14 03:38:58;;;;;;;7.68;5.00;;;;;;;23.80;53.16;101984.63;5073672;28;20044;-74
2021/08/14 03:41:24;;;;;;;8.32;5.10;;;;;;;23.84;53.15;101990.41;5076898;28;20515;-73
2021/08/14 03:43:49;;;;;;;6.55;4.95;;;;;;;23.83;53.14;102004.72;5064848;28;20040;-74
2021/08/14 03:46:14;;;;;;;8.38;5.30;;;;;;;23.78;53.25;101980.47;5067341;28;20040;-74
2021/08/14 03:48:40;;;;;;;7.53;5.03;;;;;;;23.77;53.24;101986.81;5065350;28;20517;-74
2021/08/14 03:51:05;;;;;;;7.07;5.00;;;;;;;23.75;53.29;101989.66;5065723;28;20040;-74
2021/08/14 03:53:31;;;;;;;7.57;5.07;;;;;;;23.81;53.23;102004.06;5081387;28;20052;-74
2021/08/14 03:55:57;;;;;;;7.20;5.00;;;;;;;23.32;53.30;101913.97;5064206;28;20048;-74
2021/08/14 03:58:23;;;;;;;7.80;4.90;;;;;;;23.76;53.07;101991.31;5064192;28;20588;-74
2021/08/14 04:00:48;;;;;;;7.30;5.00;;;;;;;23.81;53.19;101996.91;5065580;28;20040;-74
2021/08/14 04:03:14;;;;;;;6.40;4.63;;;;;;;23.79;53.22;101990.13;5065728;28;20398;-74
2021/08/14 04:05:39;;;;;;;6.50;4.57;;;;;;;23.81;53.23;101998.75;5066962;28;20111;-73
2021/08/14 04:08:06;;;;;;;6.88;4.80;;;;;;;23.80;53.19;101997.91;5064817;28;20045;-74
2021/08/14 04:10:31;;;;;;;8.32;5.03;;;;;;;23.68;53.15;101978.06;5065176;28;20442;-73
2021/08/14 04:12:57;;;;;;;8.77;5.30;;;;;;;23.79;53.41;101995.44;5064488;28;20427;-73
2021/08/14 04:15:22;;;;;;;7.80;4.65;;;;;;;23.75;53.28;101986.16;5065439;28;20127;-73
2021/08/14 04:17:48;;;;;;;7.25;5.03;;;;;;;23.78;53.25;101991.94;5065865;28;20103;-74
2021/08/14 04:20:14;;;;;;;7.75;4.82;;;;;;;23.70;53.36;101972.59;5066861;28;20128;-73
2021/08/14 04:22:39;;;;;;;7.57;5.25;;;;;;;23.71;53.33;101983.03;5065691;28;20101;-73
2021/08/14 04:25:06;;;;;;;6.13;4.57;;;;;;;23.78;53.45;101980.47;5064226;28;20067;-73
2021/08/14 04:27:31;;;;;;;7.97;4.88;;;;;;;23.76;53.37;101983.31;5064279;28;20037;-74
2021/08/14 04:29:57;;;;;;;6.80;4.82;;;;;;;23.63;53.34;101963.63;5065649;28;20431;-73
2021/08/14 04:32:22;;;;;;;7.03;4.70;;;;;;;23.77;53.31;101992.13;5064195;28;20036;-74
2021/08/14 04:34:48;;;;;;;8.25;4.70;;;;;;;23.75;53.24;101994.16;5063928;28;20047;-73
2021/08/14 04:37:14;;;;;;;7.43;4.68;;;;;;;23.57;53.38;101962.53;5065426;28;20033;-74
2021/08/14 04:39:40;;;;;;;6.47;5.13;;;;;;;23.63;53.38;101969.78;5065078;28;20124;-73
2021/08/14 04:42:05;;;;;;;6.75;5.03;;;;;;;23.70;53.36;101980.56;5063673;28;20048;-74
2021/08/14 04:44:32;;;;;;;9.52;5.10;;;;;;;23.75;53.42;101996.81;5054155;28;20032;-74
2021/08/14 04:47:00;;;;;;;6.07;5.10;;;;;;;23.66;53.32;101977.41;5063905;28;20108;-73
2021/08/14 04:49:26;;;;;;;9.10;4.95;;;;;;;23.62;53.34;101970.78;5058982;28;20494;-74
2021/08/14 04:51:51;;;;;;;6.60;4.85;;;;;;;23.65;53.36;101980.25;5061561;28;20040;-74
2021/08/14 04:54:17;;;;;;;8.27;5.10;;;;;;;23.65;53.39;101980.25;5066697;28;20043;-74
2021/08/14 04:56:42;;;;;;;7.47;5.30;;;;;;;23.71;53.30;101993.69;5064482;28;20679;-74
2021/08/14 04:59:08;;;;;;;6.68;4.60;;;;;;;23.74;53.20;101990.66;5065062;28;20040;-73
2021/08/14 05:01:33;;;;;;;7.18;4.85;;;;;;;23.74;53.40;101984.50;5066445;28;20044;-73
2021/08/14 05:03:59;;;;;;;8.80;5.15;;;;;;;23.73;53.36;101983.69;5063355;28;20036;-74
2021/08/14 05:06:24;;;;;;;7.18;5.15;;;;;;;23.70;53.37;101980.56;5065060;28;20106;-74
2021/08/14 05:08:50;;;;;;;8.40;4.95;;;;;;;23.69;53.30;101981.53;5062386;28;20044;-73
2021/08/14 05:11:15;;;;;;;7.03;5.00;;;;;;;23.72;53.44;101974.06;5068462;28;20032;-73
2021/08/14 05:13:41;;;;;;;7.40;4.88;;;;;;;23.70;53.43;101978.72;5052792;28;20394;-73
2021/08/14 05:16:06;;;;;;;9.23;5.22;;;;;;;23.59;53.51;101963.19;5066838;28;20056;-73
2021/08/14 05:18:32;;;;;;;9.10;5.00;;;;;;;23.66;53.32;101976.56;5066626;28;20051;-73
2021/08/14 05:20:57;;;;;;;8.15;4.65;;;;;;;23.73;53.26;101996.97;5068680;28;20040;-74
2021/08/14 05:23:23;;;;;;;8.13;5.30;;;;;;;23.74;53.50;101992.50;5069258;28;20448;-74
2021/08/14 05:25:48;;;;;;;6.13;4.80;;;;;;;23.58;53.47;101964.19;5068661;28;20078;-73
2021/08/14 05:28:14;;;;;;;7.63;5.15;;;;;;;23.58;53.34;101971.34;5067564;28;20028;-74
2021/08/14 05:30:39;;;;;;;8.80;5.20;;;;;;;23.64;53.51;101981.25;5068749;28;20055;-73
2021/08/14 05:33:05;;;;;;;6.15;4.82;;;;;;;23.63;53.49;101980.44;5068958;28;20041;-73
2021/08/14 05:35:30;;;;;;;7.05;5.15;;;;;;;23.67;53.04;101981.72;5067966;28;20494;-73
2021/08/14 05:37:56;;;;;;;10.02;5.25;;;;;;;23.72;53.42;101990.00;5068283;28;20037;-74
2021/08/14 05:40:21;;;;;;;9.55;5.03;;;;;;;23.72;53.35;101995.34;5071021;28;20041;-73
2021/08/14 05:42:47;;;;;;;9.38;5.20;;;;;;;23.74;53.24;101989.84;5070406;28;20047;-74
2021/08/14 05:45:12;;;;;;;7.90;5.25;;;;;;;23.75;53.10;101991.47;5062576;28;20036;-73
2021/08/14 05:47:38;;;;;;;7.20;4.82;;;;;;;23.75;53.19;101992.31;5066125;28;20040;-73
2021/08/14 05:50:04;;;;;;;7.75;5.15;;;;;;;23.62;53.38;101959.34;5067955;28;20047;-73
2021/08/14 05:52:30;;;;;;;7.75;5.15;;;;;;;23.74;53.14;101969.38;5066710;28;20043;-74
2021/08/14 05:54:55;;;;;;;7.57;5.15;;;;;;;23.75;53.16;101986.16;5069304;28;20393;-74
2021/08/14 05:57:21;;;;;;;10.50;5.68;;;;;;;23.76;53.42;101988.66;5066293;28;20036;-73
2021/08/14 05:59:47;;;;;;;9.07;5.18;;;;;;;23.73;53.32;101989.00;5068894;28;20059;-74
2021/08/14 06:02:12;;;;;;;6.82;5.05;;;;;;;23.75;53.33;101991.47;5068084;28;20414;-73
2021/08/14 06:04:38;;;;;;;6.97;5.00;;;;;;;23.75;53.42;101989.66;5067828;28;20047;-73
2021/08/14 06:07:04;;;;;;;6.88;4.78;;;;;;;23.76;53.13;101990.47;5067154;28;20051;-74
2021/08/14 06:09:29;;;;;;;5.95;4.95;;;;;;;23.77;53.11;101992.97;5067552;28;20117;-73
2021/08/14 06:11:55;;;;;;;9.85;5.43;;;;;;;23.79;53.29;101987.47;5069811;28;20048;-73
2021/08/14 06:14:20;;;;;;;10.18;5.13;;;;;;;23.64;53.23;101970.59;5065078;28;20151;-73
2021/08/14 06:16:46;;;;;;;9.10;5.43;;;;;;;23.78;53.13;101991.13;5068955;28;20048;-73
2021/08/14 06:19:11;;;;;;;7.05;4.95;;;;;;;23.78;53.20;101991.13;5063822;28;20501;-73
2021/08/14 06:21:37;;;;;;;8.13;5.05;;;;;;;23.72;53.04;101979.38;5068211;28;20402;-73
2021/08/14 06:24:03;;;;;;;8.50;5.43;;;;;;;23.74;52.80;101982.69;5066576;28;20044;-73
2021/08/14 06:26:28;;;;;;;8.45;5.13;;;;;;;23.83;53.03;101985.25;5067247;28;20047;-73
2021/08/14 06:28:54;;;;;;;6.10;4.47;;;;;;;23.80;53.19;101991.78;5063358;28;20021;-74
2021/08/14 06:31:19;;;;;;;8.23;5.75;;;;;;;23.78;53.21;101981.31;5067000;28;20079;-73
2021/08/14 06:33:45;;;;;;;8.57;5.30;;;;;;;23.72;52.97;101968.75;5064909;28;20033;-73
2021/08/14 06:36:12;;;;;;;9.38;5.75;;;;;;;23.85;53.11;101977.94;5064377;28;20060;-74
2021/08/14 06:38:38;;;;;;;7.72;5.05;;;;;;;23.82;53.19;101973.78;5054789;28;20072;-73
2021/08/14 06:41:03;;;;;;;8.10;5.13;;;;;;;23.84;53.20;101974.44;5068634;28;20052;-74
2021/08/14 06:43:29;;;;;;;10.13;4.80;;;;;;;23.71;53.00;101944.97;5068498;28;20044;-73
2021/08/14 06:45:54;;;;;;;8.32;4.90;;;;;;;23.81;52.80;101956.19;5094056;28;20360;-74
2021/08/14 06:48:20;;;;;;;10.80;5.32;;;;;;;23.94;52.99;101972.38;5069988;28;20029;-74
2021/08/14 06:50:45;;;;;;;8.45;5.65;;;;;;;23.95;52.83;101974.03;5068039;28;20070;-73
2021/08/14 06:53:11;;;;;;;6.75;5.22;;;;;;;23.95;52.83;101974.03;5065694;28;20040;-74
2021/08/14 06:55:37;;;;;;;8.90;5.32;;;;;;;23.94;53.03;101984.84;5067733;28;20486;-74
2021/08/14 06:58:02;;;;;;;8.25;5.13;;;;;;;23.89;52.89;101977.41;5063201;28;20487;-74
2021/08/14 07:00:28;;;;;;;9.65;5.05;;;;;;;23.95;52.81;101994.47;5066524;28;20390;-74
2021/08/14 07:02:54;;;;;;;8.98;5.68;;;;;;;23.95;52.98;101989.16;5066774;28;20479;-74
2021/08/14 07:05:20;;;;;;;7.32;5.32;;;;;;;23.94;52.62;101975.03;5065788;28;20046;-74
2021/08/14 07:07:45;;;;;;;9.52;5.63;;;;;;;24.01;52.58;101983.13;5068476;28;20485;-73
2021/08/14 07:10:11;;;;;;;8.13;4.93;;;;;;;24.01;52.83;101983.13;5065298;28;20040;-74
2021/08/14 07:12:37;;;;;;;7.80;5.50;;;;;;;23.95;52.69;101975.84;5067563;28;20061;-74
2021/08/14 07:15:05;;;;;;;7.05;4.68;;;;;;;24.02;52.56;101988.25;5066536;28;20078;-74
2021/08/14 07:17:32;;;;;;;8.13;5.13;;;;;;;24.05;52.67;101987.06;5065840;28;20077;-74
2021/08/14 07:19:58;;;;;;;7.93;5.25;;;;;;;24.01;52.79;101977.78;5067265;28;20449;-74
2021/08/14 07:22:24;;;;;;;7.53;5.40;;;;;;;23.99;52.46;101966.50;5065799;28;20075;-74
2021/08/14 07:24:49;;;;;;;9.82;5.40;;;;;;;24.09;52.57;101977.75;5067111;28;20363;-74
2021/08/14 07:27:15;;;;;;;7.85;5.13;;;;;;;24.03;52.75;101970.44;5065437;28;20063;-74
2021/08/14 07:29:40;;;;;;;7.68;4.72;;;;;;;24.10;52.58;101977.56;5064588;28;20103;-74
2021/08/14 07:32:06;;;;;;;8.35;5.55;;;;;;;24.06;52.85;101981.59;5067659;28;20047;-74
2021/08/14 07:34:32;;;;;;;10.38;5.55;;;;;;;24.10;52.57;101976.72;5065506;28;20549;-74
2021/08/14 07:36:58;;;;;;;9.93;5.88;;;;;;;23.99;52.72;101966.50;5064155;28;20129;-74
2021/08/14 07:39:23;;;;;;;10.63;6.18;;;;;;;24.08;52.65;101990.22;5063789;28;20088;-77
2021/08/14 07:41:49;;;;;;;10.27;6.10;;;;;;;24.07;52.46;101980.59;5065469;28;20036;-77
2021/08/14 07:44:14;;;;;;;8.65;5.28;;;;;;;23.85;52.62;101943.34;5066399;28;20033;-76
2021/08/14 07:46:40;;;;;;;8.48;6.05;;;;;;;24.11;52.70;101992.50;5066145;28;20039;-77
2021/08/14 07:49:05;;;;;;;8.48;5.68;;;;;;;24.14;52.67;101980.69;5065436;28;20453;-78
2021/08/14 07:51:31;;;;;;;10.38;5.60;;;;;;;24.04;52.69;101959.63;5066098;28;20051;-74
2021/08/14 07:53:56;;;;;;;9.88;5.65;;;;;;;24.12;52.66;101982.69;5065102;22;20392;-88
2021/08/14 07:56:29;;;;;;;8.98;5.75;;;;;;;22.33;52.45;101701.47;4991651;28;20049;-90
2021/08/14 07:58:54;;;;;;;10.90;6.05;;;;;;;24.15;52.82;101981.50;5060623;28;20408;-71
2021/08/14 08:01:20;;;;;;;7.30;5.07;;;;;;;24.15;52.50;101982.31;5062348;28;20040;-71
2021/08/14 08:03:45;;;;;;;12.15;5.80;;;;;;;24.15;52.56;101981.50;5064248;28;20063;-71
2021/08/14 08:06:11;;;;;;;8.88;5.78;;;;;;;24.15;52.57;101984.16;5063551;28;20049;-71
2021/08/14 08:08:37;;;;;;;10.52;5.72;;;;;;;23.78;52.82;101921.97;5062511;28;20034;-72
2021/08/14 08:11:03;;;;;;;11.25;5.85;;;;;;;24.15;52.79;101971.69;5047477;28;20485;-76
2021/08/14 08:13:28;;;;;;;18.88;6.35;;;;;;;24.17;52.74;101968.84;5064556;28;20040;-76
2021/08/14 08:15:54;;;;;;;16.10;6.20;;;;;;;24.17;52.77;101964.34;5066189;28;20086;-76
2021/08/14 08:18:20;;;;;;;17.23;6.32;;;;;;;24.10;52.88;101958.94;5065046;28;20043;-78
2021/08/14 08:20:46;;;;;;;14.15;5.53;;;;;;;24.06;52.82;101946.16;5062697;28;20036;-77
2021/08/14 08:23:11;;;;;;;18.77;6.70;;;;;;;24.19;53.04;101970.31;5048210;28;20036;-78
2021/08/14 08:25:37;;;;;;;14.45;5.55;;;;;;;23.70;52.84;101892.81;5064677;28;20044;-77
2021/08/14 08:28:04;;;;;;;12.55;5.45;;;;;;;24.19;52.59;101974.81;5064767;28;20348;-76
2021/08/14 08:30:30;;;;;;;14.73;5.65;;;;;;;24.17;52.84;101980.31;5064980;28;20044;-76
2021/08/14 08:32:56;;;;;;;14.98;7.18;;;;;;;24.03;52.64;101957.16;5064216;28;20505;-76
2021/08/14 08:35:22;;;;;;;12.60;6.05;;;;;;;24.18;52.69;101983.78;5061016;28;20040;-74
2021/08/14 08:37:47;;;;;;;13.00;6.07;;;;;;;24.11;52.67;101973.06;5048413;28;20113;-74
2021/08/14 08:40:14;;;;;;;19.70;6.53;;;;;;;24.16;52.97;101977.84;5048027;28;20499;-76
2021/08/14 08:42:41;;;;;;;16.30;6.65;;;;;;;24.19;52.66;101972.16;5045862;28;20056;-75
2021/08/14 08:45:07;;;;;;;12.23;5.65;;;;;;;24.21;52.50;101972.78;5065605;28;20080;-75
2021/08/14 08:47:37;;;;;;;13.32;5.80;;;;;;;24.19;52.68;101961.50;5065318;28;20090;-74
2021/08/14 08:50:06;;;;;;;16.05;6.03;;;;;;;24.15;52.61;101950.41;5064649;28;20033;-75
2021/08/14 08:52:31;;;;;;;15.32;6.57;;;;;;;24.20;52.51;101956.00;5050740;28;20039;-76
2021/08/14 08:54:57;;;;;;;12.63;6.38;;;;;;;24.23;52.45;101960.94;5067471;28;20040;-76
2021/08/14 08:57:24;;;;;;;16.98;6.80;;;;;;;24.22;52.26;101966.44;5066865;28;20048;-76
2021/08/14 08:59:50;;;;;;;15.25;6.47;;;;;;;24.23;52.27;101962.78;5050496;28;20039;-77
2021/08/14 09:02:43;;;;;;;17.77;6.82;;;;;;;24.22;52.46;101963.78;5068215;28;20025;-77
2021/08/14 09:05:20;;;;;;;12.63;6.28;;;;;;;24.22;52.49;101958.47;5065790;28;20045;-77
2021/08/14 09:07:49;;;;;;;16.63;6.80;;;;;;;24.10;52.30;101948.28;5067752;28;20051;-78
2021/08/14 09:10:18;;;;;;;11.70;5.72;;;;;;;24.21;52.54;101951.50;5065884;28;20202;-73
2021/08/14 09:12:45;;;;;;;11.23;6.20;;;;;;;24.23;52.37;101954.78;5065914;28;20040;-73
2021/08/14 09:15:19;;;;;;;17.83;6.10;;;;;;;24.21;52.58;101957.63;5066753;28;20036;-70
2021/08/14 09:17:46;;;;;;;15.00;6.45;;;;;;;24.10;52.71;101950.13;5049295;28;20033;-74
2021/08/14 09:20:19;;;;;;;13.18;5.53;;;;;;;24.21;52.58;101954.97;5070920;28;20042;-74
2021/08/14 09:23:07;;;;;;;14.93;6.05;;;;;;;24.22;52.44;101959.28;5067531;28;20519;-73
2021/08/14 09:25:50;;;;;;;10.25;5.65;;;;;;;24.20;52.65;101960.50;5067783;28;20066;-73
2021/08/14 09:28:27;;;;;;;13.48;5.82;;;;;;;24.03;52.43;101936.69;5051374;28;20051;-80
2021/08/14 09:30:55;;;;;;;15.73;5.43;;;;;;;24.07;52.59;101937.19;5067530;28;20479;-79
2021/08/14 09:33:29;;;;;;;10.55;5.55;;;;;;;24.17;52.56;101952.88;5067793;28;20108;-80
2021/08/14 09:35:56;;;;;;;14.32;5.65;;;;;;;24.17;52.69;101955.53;5067778;28;20041;-80
2021/08/14 09:38:23;;;;;;;14.50;5.20;;;;;;;23.87;52.49;101893.44;5067278;28;20397;-80
2021/08/14 09:40:49;;;;;;;17.40;6.70;;;;;;;24.21;52.35;101951.50;5068292;28;20034;-80
2021/08/14 09:43:32;;;;;;;10.27;5.70;;;;;;;24.20;52.60;101961.31;5042226;28;20029;-81
2021/08/14 09:45:58;;;;;;;15.27;5.45;;;;;;;24.20;52.62;101957.81;5048100;28;20045;-79
2021/08/14 09:48:25;;;;;;;15.73;6.20;;;;;;;24.20;52.55;101955.16;5065883;28;20040;-80
2021/08/14 09:50:52;;;;;;;12.57;5.80;;;;;;;24.19;52.44;101954.34;5064594;28;20041;-80
2021/08/14 09:53:24;;;;;;;14.48;5.80;;;;;;;24.11;52.60;101946.44;5064320;28;20707;-80
2021/08/14 09:56:11;;;;;;;11.60;5.68;;;;;;;24.03;52.54;101928.72;5065746;28;20127;-81
2021/08/14 09:58:37;;;;;;;14.07;6.13;;;;;;;24.08;52.46;101936.16;5065510;28;20059;-80
2021/08/14 10:01:04;;;;;;;18.13;6.68;;;;;;;23.78;52.38;101887.41;5043005;28;20501;-80
2021/08/14 10:03:32;;;;;;;10.55;5.45;;;;;;;24.09;52.27;101943.97;5065412;28;20115;-80
2021/08/14 10:05:59;;;;;;;14.02;6.05;;;;;;;24.11;52.61;101941.13;5064707;28;20042;-80
2021/08/14 10:08:26;;;;;;;11.63;5.70;;;;;;;23.65;52.36;101868.56;5067732;28;20493;-81
2021/08/14 10:10:52;;;;;;;14.43;5.65;;;;;;;23.85;52.50;101898.13;5066935;28;20028;-80
2021/08/14 10:13:19;;;;;;;12.35;5.80;;;;;;;23.96;52.31;101924.31;5065104;28;20053;-80
2021/08/14 10:15:45;;;;;;;14.80;5.88;;;;;;;24.19;52.15;101949.00;5067403;28;20035;-80
2021/08/14 10:18:11;;;;;;;13.70;6.05;;;;;;;24.17;52.27;101945.72;5067612;28;20040;-81
2021/08/14 10:20:37;;;;;;;13.02;5.45;;;;;;;24.10;52.17;101937.63;5049930;28;20036;-80
2021/08/14 10:23:07;;;;;;;14.88;6.18;;;;;;;24.06;52.52;101931.03;5068466;28;20043;-79
2021/08/14 10:25:35;;;;;;;12.38;6.00;;;;;;;24.17;52.52;101947.53;5060139;28;20767;-79
2021/08/14 10:28:04;;;;;;;18.63;5.68;;;;;;;24.15;52.58;101941.59;5061242;28;20502;-80
2021/08/14 10:30:42;;;;;;;13.75;5.90;;;;;;;24.17;52.66;101950.22;5049007;28;20033;-80
2021/08/14 10:33:26;;;;;;;14.10;5.82;;;;;;;24.16;52.42;101954.72;5049672;28;20074;-80
2021/08/14 10:35:53;;;;;;;14.38;6.20;;;;;;;24.00;52.61;101920.28;5031558;28;20401;-80
2021/08/14 10:38:39;;;;;;;10.02;5.65;;;;;;;24.18;52.70;101936.72;5064333;28;20028;-81
2021/08/14 10:41:06;;;;;;;13.85;5.90;;;;;;;24.11;52.79;101926.00;5066534;28;20090;-80
2021/08/14 10:43:53;;;;;;;16.58;6.40;;;;;;;24.17;52.63;101928.91;5066639;28;20071;-80
2021/08/14 10:46:50;;;;;;;13.98;5.57;;;;;;;24.16;52.70;101936.06;5068448;28;20032;-79
2021/08/14 10:49:36;;;;;;;12.93;5.85;;;;;;;24.02;52.70;101900.44;5048629;28;20131;-80
2021/08/14 10:52:02;;;;;;;17.13;6.78;;;;;;;24.19;52.47;101925.06;5066468;28;20131;-80
2021/08/14 10:54:27;;;;;;;18.33;6.32;;;;;;;24.19;52.44;101921.56;5030540;28;20146;-81
2021/08/14 10:56:55;;;;;;;17.15;7.13;;;;;;;24.01;52.64;101900.63;5067320;28;20143;-80
2021/08/14 10:59:39;;;;;;;15.40;6.13;;;;;;;24.19;52.59;101917.06;5064215;28;20032;-81
2021/08/14 11:02:10;;;;;;;19.10;6.65;;;;;;;24.17;52.81;101929.75;5059970;28;20095;-80
2021/08/14 11:04:39;;;;;;;12.45;6.03;;;;;;;24.17;52.79;101929.75;5030374;28;20036;-80
2021/08/14 11:07:20;;;;;;;11.32;5.45;;;;;;;24.20;52.73;101917.91;5065618;28;20868;-80
2021/08/14 11:10:10;;;;;;;11.38;6.50;;;;;;;24.17;52.66;101916.44;5063679;28;20508;-80
2021/08/14 11:12:41;;;;;;;21.70;7.53;;;;;;;24.20;52.84;101932.03;5066158;28;20486;-81
2021/08/14 11:15:24;;;;;;;14.82;6.72;;;;;;;24.19;52.69;101925.06;5064763;28;20394;-80
2021/08/14 11:18:00;;;;;;;13.45;6.50;;;;;;;24.07;52.71;101899.94;5066269;28;20036;-80
2021/08/14 11:20:26;;;;;;;10.93;6.05;;;;;;;24.18;52.83;101917.25;5064129;28;20033;-79
2021/08/14 11:22:56;;;;;;;12.73;6.88;;;;;;;24.17;52.81;101913.78;5061973;28;20516;-80